sensor_id;sensor_type;location;lat;lon;timestamp;pressure;altitude;pressure_sealevel;temperature;humidity
70302;BME280;57706;56.326;43.882;2023-05-11T00:02:22;101274.03;;;10.44;54.28
70302;BME280;57706;56.326;43.882;2023-05-11T00:04:48;101277.91;;;10.50;54.42
70302;BME280;57706;56.326;43.882;2023-05-11T00:07:14;101275.81;;;10.53;54.37
70302;BME280;57706;56.326;43.882;2023-05-11T00:09:39;101279.84;;;10.57;54.21
70302;BME280;57706;56.326;43.882;2023-05-11T00:12:06;101280.38;;;10.61;54.15
70302;BME280;57706;56.326;43.882;2023-05-11T00:14:32;101277.03;;;10.69;54.43
70302;BME280;57706;56.326;43.882;2023-05-11T00:16:58;101277.59;;;10.72;54.75
70302;BME280;57706;56.326;43.882;2023-05-11T00:19:24;101278.13;;;10.76;54.90
70302;BME280;57706;56.326;43.882;2023-05-11T00:21:49;101278.69;;;10.80;54.90
70302;BME280;57706;56.326;43.882;2023-05-11T00:24:16;101276.06;;;10.80;54.64
70302;BME280;57706;56.326;43.882;2023-05-11T00:26:41;101269.13;;;10.79;54.91
70302;BME280;57706;56.326;43.882;2023-05-11T00:29:07;101276.19;;;10.78;54.89
70302;BME280;57706;56.326;43.882;2023-05-11T00:31:33;101262.91;;;10.80;55.08
70302;BME280;57706;56.326;43.882;2023-05-11T00:33:59;101265.41;;;10.81;56.27
70302;BME280;57706;56.326;43.882;2023-05-11T00:36:25;101268.41;;;10.86;55.43
70302;BME280;57706;56.326;43.882;2023-05-11T00:38:52;101256.53;;;10.92;55.47
70302;BME280;57706;56.326;43.882;2023-05-11T00:41:18;101261.78;;;10.92;55.56
70302;BME280;57706;56.326;43.882;2023-05-11T00:43:44;101267.84;;;10.93;55.30
70302;BME280;57706;56.326;43.882;2023-05-11T00:46:10;101273.97;;;10.93;55.84
70302;BME280;57706;56.326;43.882;2023-05-11T00:48:36;101280.19;;;10.92;55.89
70302;BME280;57706;56.326;43.882;2023-05-11T00:51:03;101276.16;;;10.88;56.70
70302;BME280;57706;56.326;43.882;2023-05-11T00:53:29;101283.25;;;10.78;56.71
70302;BME280;57706;56.326;43.882;2023-05-11T00:55:55;101280.06;;;10.84;56.34
70302;BME280;57706;56.326;43.882;2023-05-11T00:58:21;101283.09;;;10.89;55.88
70302;BME280;57706;56.326;43.882;2023-05-11T01:00:49;101276.72;;;10.92;56.18
70302;BME280;57706;56.326;43.882;2023-05-11T01:03:15;101276.41;;;10.95;56.45
70302;BME280;57706;56.326;43.882;2023-05-11T01:05:52;101282.22;;;10.98;56.54
70302;BME280;57706;56.326;43.882;2023-05-11T01:08:41;101276.84;;;11.00;56.73
70302;BME280;57706;56.326;43.882;2023-05-11T01:11:28;101272.41;;;11.00;56.69
70302;BME280;57706;56.326;43.882;2023-05-11T01:14:00;101282.78;;;11.02;56.99
70302;BME280;57706;56.326;43.882;2023-05-11T01:16:30;101283.63;;;11.02;57.00
70302;BME280;57706;56.326;43.882;2023-05-11T01:19:01;101281.97;;;11.01;56.96
70302;BME280;57706;56.326;43.882;2023-05-11T01:21:32;101277.66;;;11.00;57.35
70302;BME280;57706;56.326;43.882;2023-05-11T01:32:47;101284.47;;;10.93;58.31
70302;BME280;57706;56.326;43.882;2023-05-11T01:35:17;101282.13;;;10.90;58.58
70302;BME280;57706;56.326;43.882;2023-05-11T01:37:49;101285.03;;;10.87;58.47
70302;BME280;57706;56.326;43.882;2023-05-11T01:40:17;101279.47;;;10.90;58.80
70302;BME280;57706;56.326;43.882;2023-05-11T01:42:57;101284.47;;;10.93;58.51
70302;BME280;57706;56.326;43.882;2023-05-11T01:45:25;101285.03;;;10.97;58.44
70302;BME280;57706;56.326;43.882;2023-05-11T01:47:52;101287.47;;;10.98;58.16
70302;BME280;57706;56.326;43.882;2023-05-11T01:50:21;101280.00;;;11.04;57.82
70302;BME280;57706;56.326;43.882;2023-05-11T01:52:50;101279.44;;;11.10;58.04
70302;BME280;57706;56.326;43.882;2023-05-11T01:55:20;101276.22;;;11.16;57.82
70302;BME280;57706;56.326;43.882;2023-05-11T01:57:50;101276.31;;;11.24;57.36
70302;BME280;57706;56.326;43.882;2023-05-11T02:00:17;101282.66;;;11.32;57.16
70302;BME280;57706;56.326;43.882;2023-05-11T02:02:44;101289.00;;;11.39;56.67
70302;BME280;57706;56.326;43.882;2023-05-11T02:05:17;101289.41;;;11.44;56.17
70302;BME280;57706;56.326;43.882;2023-05-11T02:07:45;101279.25;;;11.49;56.17
70302;BME280;57706;56.326;43.882;2023-05-11T02:10:14;101281.16;;;11.57;56.17
70302;BME280;57706;56.326;43.882;2023-05-11T02:12:42;101284.69;;;11.66;55.85
70302;BME280;57706;56.326;43.882;2023-05-11T02:15:10;101278.56;;;11.75;55.51
70302;BME280;57706;56.326;43.882;2023-05-11T02:17:38;101284.59;;;11.86;55.23
70302;BME280;57706;56.326;43.882;2023-05-11T02:20:08;101287.31;;;11.94;54.91
70302;BME280;57706;56.326;43.882;2023-05-11T02:22:36;101284.09;;;12.00;54.80
70302;BME280;57706;56.326;43.882;2023-05-11T02:25:04;101270.63;;;12.03;54.07
70302;BME280;57706;56.326;43.882;2023-05-11T02:27:31;101277.16;;;12.17;54.95
70302;BME280;57706;56.326;43.882;2023-05-11T02:29:58;101270.84;;;12.28;54.66
70302;BME280;57706;56.326;43.882;2023-05-11T02:32:25;101268.94;;;12.38;53.92
70302;BME280;57706;56.326;43.882;2023-05-11T02:35:00;101274.94;;;12.49;53.90
70302;BME280;57706;56.326;43.882;2023-05-11T02:37:32;101277.66;;;12.57;53.60
70302;BME280;57706;56.326;43.882;2023-05-11T02:40:05;101278.69;;;12.64;53.01
70302;BME280;57706;56.326;43.882;2023-05-11T02:42:37;101276.94;;;12.73;52.99
70302;BME280;57706;56.326;43.882;2023-05-11T02:45:06;101282.13;;;12.83;52.73
70302;BME280;57706;56.326;43.882;2023-05-11T02:47:53;101281.00;;;12.94;53.07
70302;BME280;57706;56.326;43.882;2023-05-11T02:50:24;101274.97;;;13.02;52.24
70302;BME280;57706;56.326;43.882;2023-05-11T02:52:54;101271.72;;;13.08;52.32
70302;BME280;57706;56.326;43.882;2023-05-11T02:55:22;101275.81;;;13.11;51.96
70302;BME280;57706;56.326;43.882;2023-05-11T02:57:49;101277.84;;;13.17;51.44
70302;BME280;57706;56.326;43.882;2023-05-11T03:00:15;101279.00;;;13.22;51.04
70302;BME280;57706;56.326;43.882;2023-05-11T03:02:43;101275.41;;;13.32;50.76
70302;BME280;57706;56.326;43.882;2023-05-11T03:05:09;101282.06;;;13.36;50.87
70302;BME280;57706;56.326;43.882;2023-05-11T03:07:35;101277.50;;;13.46;50.60
70302;BME280;57706;56.326;43.882;2023-05-11T03:10:02;101275.53;;;13.57;50.38
70302;BME280;57706;56.326;43.882;2023-05-11T03:12:32;101274.75;;;13.65;50.00
70302;BME280;57706;56.326;43.882;2023-05-11T03:15:02;101278.88;;;13.67;50.46
70302;BME280;57706;56.326;43.882;2023-05-11T03:17:33;101283.84;;;13.70;49.71
70302;BME280;57706;56.326;43.882;2023-05-11T03:20:00;101282.88;;;13.80;49.71
70302;BME280;57706;56.326;43.882;2023-05-11T03:22:31;101286.16;;;13.73;50.13
70302;BME280;57706;56.326;43.882;2023-05-11T03:24:58;101289.13;;;13.70;50.63
70302;BME280;57706;56.326;43.882;2023-05-11T03:27:26;101288.81;;;13.90;50.15
70302;BME280;57706;56.326;43.882;2023-05-11T03:29:52;101293.66;;;14.03;49.91
70302;BME280;57706;56.326;43.882;2023-05-11T03:32:19;101294.63;;;14.10;50.01
70302;BME280;57706;56.326;43.882;2023-05-11T03:34:46;101291.50;;;14.15;49.69
70302;BME280;57706;56.326;43.882;2023-05-11T03:37:14;101292.84;;;14.19;49.68
70302;BME280;57706;56.326;43.882;2023-05-11T03:39:45;101299.28;;;14.25;48.66
70302;BME280;57706;56.326;43.882;2023-05-11T03:42:16;101291.81;;;13.95;49.29
70302;BME280;57706;56.326;43.882;2023-05-11T03:44:45;101301.25;;;14.14;49.47
70302;BME280;57706;56.326;43.882;2023-05-11T03:47:14;101296.13;;;14.21;49.25
70302;BME280;57706;56.326;43.882;2023-05-11T03:49:41;101299.13;;;14.43;48.40
70302;BME280;57706;56.326;43.882;2023-05-11T03:52:08;101302.06;;;14.65;48.18
70302;BME280;57706;56.326;43.882;2023-05-11T03:54:35;101302.75;;;14.83;47.83
70302;BME280;57706;56.326;43.882;2023-05-11T03:57:01;101300.75;;;14.94;47.17
70302;BME280;57706;56.326;43.882;2023-05-11T03:59:27;101299.41;;;14.90;45.57
70302;BME280;57706;56.326;43.882;2023-05-11T04:01:52;101302.03;;;15.06;45.52
70302;BME280;57706;56.326;43.882;2023-05-11T04:04:19;101297.66;;;15.22;45.41
70302;BME280;57706;56.326;43.882;2023-05-11T04:06:46;101308.59;;;15.27;45.18
70302;BME280;57706;56.326;43.882;2023-05-11T04:09:16;101308.69;;;15.42;45.16
70302;BME280;57706;56.326;43.882;2023-05-11T04:11:41;101312.44;;;15.56;44.94
70302;BME280;57706;56.326;43.882;2023-05-11T04:14:07;101311.38;;;15.74;44.83
70302;BME280;57706;56.326;43.882;2023-05-11T04:16:33;101318.25;;;15.91;44.44
70302;BME280;57706;56.326;43.882;2023-05-11T04:19:00;101309.00;;;16.10;43.79
70302;BME280;57706;56.326;43.882;2023-05-11T04:21:26;101318.09;;;16.16;43.92
70302;BME280;57706;56.326;43.882;2023-05-11T04:23:52;101315.00;;;16.28;43.73
70302;BME280;57706;56.326;43.882;2023-05-11T04:26:19;101323.25;;;16.33;43.49
70302;BME280;57706;56.326;43.882;2023-05-11T04:28:45;101318.53;;;16.43;43.30
70302;BME280;57706;56.326;43.882;2023-05-11T04:31:11;101320.03;;;16.61;42.91
70302;BME280;57706;56.326;43.882;2023-05-11T04:33:37;101324.91;;;16.72;42.93
70302;BME280;57706;56.326;43.882;2023-05-11T04:36:03;101319.97;;;16.84;43.31
70302;BME280;57706;56.326;43.882;2023-05-11T04:38:29;101321.91;;;16.90;43.43
70302;BME280;57706;56.326;43.882;2023-05-11T04:40:55;101330.34;;;16.94;43.54
70302;BME280;57706;56.326;43.882;2023-05-11T04:43:22;101322.75;;;16.91;43.13
70302;BME280;57706;56.326;43.882;2023-05-11T04:45:49;101317.78;;;16.88;42.76
70302;BME280;57706;56.326;43.882;2023-05-11T04:48:20;101338.75;;;16.83;42.98
70302;BME280;57706;56.326;43.882;2023-05-11T04:50:46;101335.00;;;16.92;41.81
70302;BME280;57706;56.326;43.882;2023-05-11T04:53:13;101330.63;;;16.99;41.37
70302;BME280;57706;56.326;43.882;2023-05-11T04:55:39;101337.69;;;17.07;39.65
70302;BME280;57706;56.326;43.882;2023-05-11T04:58:06;101335.94;;;16.99;39.91
70302;BME280;57706;56.326;43.882;2023-05-11T05:00:32;101345.41;;;17.02;39.88
70302;BME280;57706;56.326;43.882;2023-05-11T05:02:58;101355.78;;;16.88;39.08
70302;BME280;57706;56.326;43.882;2023-05-11T05:05:24;101361.00;;;16.82;38.46
70302;BME280;57706;56.326;43.882;2023-05-11T05:07:50;101362.56;;;16.91;38.11
70302;BME280;57706;56.326;43.882;2023-05-11T05:10:16;101354.94;;;16.88;38.08
70302;BME280;57706;56.326;43.882;2023-05-11T05:12:42;101352.97;;;16.90;38.57
70302;BME280;57706;56.326;43.882;2023-05-11T05:15:08;101345.25;;;16.95;38.88
70302;BME280;57706;56.326;43.882;2023-05-11T05:17:34;101351.75;;;16.92;39.07
70302;BME280;57706;56.326;43.882;2023-05-11T05:20:00;101343.25;;;16.97;39.65
70302;BME280;57706;56.326;43.882;2023-05-11T05:22:26;101335.34;;;16.89;39.90
70302;BME280;57706;56.326;43.882;2023-05-11T05:24:52;101332.84;;;16.72;40.32
70302;BME280;57706;56.326;43.882;2023-05-11T05:27:19;101337.03;;;16.51;40.39
70302;BME280;57706;56.326;43.882;2023-05-11T05:29:45;101336.16;;;16.36;40.82
70302;BME280;57706;56.326;43.882;2023-05-11T05:32:11;101340.53;;;16.29;41.71
70302;BME280;57706;56.326;43.882;2023-05-11T05:34:37;101329.97;;;16.20;42.86
70302;BME280;57706;56.326;43.882;2023-05-11T05:37:02;101334.69;;;16.33;42.80
70302;BME280;57706;56.326;43.882;2023-05-11T05:39:28;101334.75;;;16.48;43.15
70302;BME280;57706;56.326;43.882;2023-05-11T05:41:55;101327.78;;;16.47;43.71
70302;BME280;57706;56.326;43.882;2023-05-11T05:44:21;101332.16;;;16.40;44.35
70302;BME280;57706;56.326;43.882;2023-05-11T05:46:48;101329.22;;;16.35;44.61
70302;BME280;57706;56.326;43.882;2023-05-11T05:49:14;101329.03;;;16.36;44.66
70302;BME280;57706;56.326;43.882;2023-05-11T05:51:40;101336.25;;;16.43;45.53
70302;BME280;57706;56.326;43.882;2023-05-11T05:54:07;101340.78;;;16.57;45.31
70302;BME280;57706;56.326;43.882;2023-05-11T05:56:33;101328.38;;;16.73;45.36
70302;BME280;57706;56.326;43.882;2023-05-11T05:59:00;101321.44;;;16.87;45.32
70302;BME280;57706;56.326;43.882;2023-05-11T06:01:26;101322.22;;;17.11;44.85
70302;BME280;57706;56.326;43.882;2023-05-11T06:03:52;101320.19;;;17.43;43.59
70302;BME280;57706;56.326;43.882;2023-05-11T06:06:20;101313.59;;;17.75;42.25
70302;BME280;57706;56.326;43.882;2023-05-11T06:08:46;101317.91;;;18.13;42.00
70302;BME280;57706;56.326;43.882;2023-05-11T06:11:11;101310.50;;;18.30;41.78
70302;BME280;57706;56.326;43.882;2023-05-11T06:13:38;101307.59;;;18.54;41.18
70302;BME280;57706;56.326;43.882;2023-05-11T06:16:04;101310.84;;;18.78;39.88
70302;BME280;57706;56.326;43.882;2023-05-11T06:18:32;101315.69;;;19.31;38.51
70302;BME280;57706;56.326;43.882;2023-05-11T06:21:00;101316.44;;;19.67;37.62
70302;BME280;57706;56.326;43.882;2023-05-11T06:23:28;101316.63;;;19.65;35.72
70302;BME280;57706;56.326;43.882;2023-05-11T06:25:54;101323.75;;;20.41;35.06
70302;BME280;57706;56.326;43.882;2023-05-11T06:28:20;101319.41;;;20.67;34.41
70302;BME280;57706;56.326;43.882;2023-05-11T06:30:49;101325.22;;;24.67;29.13
70302;BME280;57706;56.326;43.882;2023-05-11T06:33:15;101322.31;;;27.00;25.91
70302;BME280;57706;56.326;43.882;2023-05-11T06:35:41;101319.75;;;26.71;23.46
70302;BME280;57706;56.326;43.882;2023-05-11T06:38:10;101316.47;;;25.66;23.76
70302;BME280;57706;56.326;43.882;2023-05-11T06:40:36;101310.66;;;26.03;24.22
70302;BME280;57706;56.326;43.882;2023-05-11T06:43:03;101314.28;;;27.55;23.37
70302;BME280;57706;56.326;43.882;2023-05-11T06:45:45;101315.91;;;28.16;21.81
70302;BME280;57706;56.326;43.882;2023-05-11T06:48:11;101315.50;;;29.47;21.29
70302;BME280;57706;56.326;43.882;2023-05-11T06:50:37;101311.78;;;33.14;18.02
70302;BME280;57706;56.326;43.882;2023-05-11T06:53:03;101305.50;;;33.33;17.43
70302;BME280;57706;56.326;43.882;2023-05-11T06:55:29;101301.09;;;36.56;14.73
70302;BME280;57706;56.326;43.882;2023-05-11T06:57:55;101299.44;;;37.96;14.43
70302;BME280;57706;56.326;43.882;2023-05-11T07:00:21;101297.94;;;38.17;11.55
70302;BME280;57706;56.326;43.882;2023-05-11T07:02:47;101296.13;;;37.73;12.95
70302;BME280;57706;56.326;43.882;2023-05-11T07:05:13;101291.66;;;37.42;12.92
70302;BME280;57706;56.326;43.882;2023-05-11T07:07:39;101295.53;;;37.23;12.62
70302;BME280;57706;56.326;43.882;2023-05-11T07:10:05;101282.13;;;38.74;11.36
70302;BME280;57706;56.326;43.882;2023-05-11T07:12:31;101278.97;;;41.46;10.01
70302;BME280;57706;56.326;43.882;2023-05-11T07:14:57;101278.16;;;38.32;11.59
70302;BME280;57706;56.326;43.882;2023-05-11T07:17:23;101274.59;;;36.92;12.59
70302;BME280;57706;56.326;43.882;2023-05-11T07:19:48;101267.34;;;34.61;13.85
70302;BME280;57706;56.326;43.882;2023-05-11T07:22:17;101281.38;;;34.26;14.77
70302;BME280;57706;56.326;43.882;2023-05-11T07:24:43;101272.28;;;34.02;14.65
70302;BME280;57706;56.326;43.882;2023-05-11T07:27:09;101272.06;;;34.41;14.90
70302;BME280;57706;56.326;43.882;2023-05-11T07:29:35;101267.38;;;33.99;15.34
70302;BME280;57706;56.326;43.882;2023-05-11T07:32:02;101276.22;;;33.25;15.62
70302;BME280;57706;56.326;43.882;2023-05-11T07:34:28;101269.53;;;32.54;15.96
70302;BME280;57706;56.326;43.882;2023-05-11T07:36:54;101275.88;;;32.20;15.47
70302;BME280;57706;56.326;43.882;2023-05-11T07:39:20;101273.97;;;31.91;16.05
70302;BME280;57706;56.326;43.882;2023-05-11T07:41:46;101271.75;;;31.23;16.13
70302;BME280;57706;56.326;43.882;2023-05-11T07:44:12;101275.34;;;30.53;16.70
70302;BME280;57706;56.326;43.882;2023-05-11T07:46:38;101275.38;;;29.38;17.56
70302;BME280;57706;56.326;43.882;2023-05-11T07:49:03;101286.41;;;28.47;18.91
70302;BME280;57706;56.326;43.882;2023-05-11T07:51:29;101287.22;;;28.10;19.11
70302;BME280;57706;56.326;43.882;2023-05-11T07:53:55;101281.19;;;27.97;20.07
70302;BME280;57706;56.326;43.882;2023-05-11T07:56:21;101286.88;;;27.68;21.13
70302;BME280;57706;56.326;43.882;2023-05-11T07:58:47;101289.94;;;27.49;20.89
70302;BME280;57706;56.326;43.882;2023-05-11T08:01:13;101292.94;;;26.81;21.03
70302;BME280;57706;56.326;43.882;2023-05-11T08:03:39;101289.34;;;25.26;21.91
70302;BME280;57706;56.326;43.882;2023-05-11T08:06:05;101288.09;;;24.64;22.28
70302;BME280;57706;56.326;43.882;2023-05-11T08:08:31;101291.00;;;24.27;22.92
70302;BME280;57706;56.326;43.882;2023-05-11T08:10:57;101294.16;;;24.24;23.12
70302;BME280;57706;56.326;43.882;2023-05-11T08:13:23;101290.59;;;26.28;21.17
70302;BME280;57706;56.326;43.882;2023-05-11T08:15:49;101287.16;;;30.88;16.96
70302;BME280;57706;56.326;43.882;2023-05-11T08:18:14;101282.31;;;30.74;16.84
70302;BME280;57706;56.326;43.882;2023-05-11T08:20:40;101281.91;;;30.26;17.04
70302;BME280;57706;56.326;43.882;2023-05-11T08:23:08;101285.16;;;29.45;18.06
70302;BME280;57706;56.326;43.882;2023-05-11T08:25:35;101281.75;;;32.03;16.02
70302;BME280;57706;56.326;43.882;2023-05-11T08:28:01;101281.88;;;41.97;9.85
70302;BME280;57706;56.326;43.882;2023-05-11T08:30:27;101268.16;;;46.66;7.47
70302;BME280;57706;56.326;43.882;2023-05-11T08:32:54;101266.75;;;45.18;8.00
70302;BME280;57706;56.326;43.882;2023-05-11T08:35:19;101263.50;;;44.13;8.95
70302;BME280;57706;56.326;43.882;2023-05-11T08:37:46;101266.69;;;43.42;9.12
70302;BME280;57706;56.326;43.882;2023-05-11T08:40:12;101264.25;;;45.47;8.56
70302;BME280;57706;56.326;43.882;2023-05-11T08:42:43;101266.88;;;42.50;9.22
70302;BME280;57706;56.326;43.882;2023-05-11T08:45:11;101267.78;;;46.82;7.64
70302;BME280;57706;56.326;43.882;2023-05-11T08:47:37;101253.13;;;50.20;5.91
70302;BME280;57706;56.326;43.882;2023-05-11T08:50:03;101251.09;;;50.83;5.40
70302;BME280;57706;56.326;43.882;2023-05-11T08:52:31;101234.38;;;51.95;4.64
70302;BME280;57706;56.326;43.882;2023-05-11T08:54:56;101228.16;;;52.78;4.41
70302;BME280;57706;56.326;43.882;2023-05-11T08:57:23;101229.63;;;52.99;4.34
70302;BME280;57706;56.326;43.882;2023-05-11T08:59:50;101221.91;;;54.21;4.03
70302;BME280;57706;56.326;43.882;2023-05-11T09:02:17;101215.38;;;55.47;3.45
70302;BME280;57706;56.326;43.882;2023-05-11T09:04:45;101223.69;;;55.51;3.40
70302;BME280;57706;56.326;43.882;2023-05-11T09:07:14;101209.41;;;54.61;3.39
70302;BME280;57706;56.326;43.882;2023-05-11T09:09:40;101208.03;;;55.50;3.33
70302;BME280;57706;56.326;43.882;2023-05-11T09:12:10;101208.34;;;55.52;2.79
70302;BME280;57706;56.326;43.882;2023-05-11T09:14:36;101197.03;;;53.05;4.25
70302;BME280;57706;56.326;43.882;2023-05-11T09:17:02;101202.28;;;51.80;3.91
70302;BME280;57706;56.326;43.882;2023-05-11T09:19:29;101204.00;;;53.30;3.33
70302;BME280;57706;56.326;43.882;2023-05-11T09:21:55;101198.19;;;55.54;3.12
70302;BME280;57706;56.326;43.882;2023-05-11T09:24:21;101188.31;;;56.63;2.47
70302;BME280;57706;56.326;43.882;2023-05-11T09:26:47;101190.63;;;48.20;5.05
70302;BME280;57706;56.326;43.882;2023-05-11T09:29:13;101186.75;;;43.10;7.25
70302;BME280;57706;56.326;43.882;2023-05-11T09:31:41;101180.69;;;39.36;9.47
70302;BME280;57706;56.326;43.882;2023-05-11T09:34:12;101180.34;;;43.79;7.07
70302;BME280;57706;56.326;43.882;2023-05-11T09:36:40;101167.81;;;49.00;5.18
70302;BME280;57706;56.326;43.882;2023-05-11T09:39:06;101170.53;;;47.29;6.33
70302;BME280;57706;56.326;43.882;2023-05-11T09:41:31;101176.44;;;41.56;8.82
70302;BME280;57706;56.326;43.882;2023-05-11T09:44:24;101181.63;;;38.09;10.28
70302;BME280;57706;56.326;43.882;2023-05-11T09:47:12;101180.84;;;36.77;11.13
70302;BME280;57706;56.326;43.882;2023-05-11T09:49:40;101171.31;;;43.09;8.47
70302;BME280;57706;56.326;43.882;2023-05-11T09:52:09;101178.47;;;48.56;5.15
70302;BME280;57706;56.326;43.882;2023-05-11T09:54:46;101172.19;;;45.94;6.07
70302;BME280;57706;56.326;43.882;2023-05-11T09:57:30;101177.16;;;41.69;8.21
70302;BME280;57706;56.326;43.882;2023-05-11T09:59:58;101178.44;;;40.13;9.91
70302;BME280;57706;56.326;43.882;2023-05-11T10:02:28;101172.66;;;39.31;10.83
70302;BME280;57706;56.326;43.882;2023-05-11T10:04:57;101175.47;;;39.43;10.66
70302;BME280;57706;56.326;43.882;2023-05-11T10:09:57;101178.44;;;36.58;13.03
70302;BME280;57706;56.326;43.882;2023-05-11T10:12:24;101180.28;;;34.96;14.54
70302;BME280;57706;56.326;43.882;2023-05-11T10:14:53;101182.97;;;34.36;14.73
70302;BME280;57706;56.326;43.882;2023-05-11T10:17:19;101180.78;;;34.10;15.05
70302;BME280;57706;56.326;43.882;2023-05-11T10:19:47;101171.88;;;35.29;14.29
70302;BME280;57706;56.326;43.882;2023-05-11T10:22:14;101171.91;;;37.81;12.60
70302;BME280;57706;56.326;43.882;2023-05-11T10:24:42;101171.19;;;39.33;11.16
70302;BME280;57706;56.326;43.882;2023-05-11T10:27:09;101163.38;;;46.88;6.86
70302;BME280;57706;56.326;43.882;2023-05-11T10:29:36;101156.63;;;47.36;6.63
70302;BME280;57706;56.326;43.882;2023-05-11T10:32:02;101151.81;;;43.75;8.77
70302;BME280;57706;56.326;43.882;2023-05-11T10:34:29;101159.00;;;40.75;10.07
70302;BME280;57706;56.326;43.882;2023-05-11T10:36:59;101155.44;;;38.63;11.42
70302;BME280;57706;56.326;43.882;2023-05-11T10:39:25;101161.16;;;36.40;12.07
70302;BME280;57706;56.326;43.882;2023-05-11T10:56:06;101129.25;;;51.90;4.71
70302;BME280;57706;56.326;43.882;2023-05-11T10:59:09;101123.97;;;52.13;4.68
70302;BME280;57706;56.326;43.882;2023-05-11T11:01:39;101124.03;;;50.84;4.81
70302;BME280;57706;56.326;43.882;2023-05-11T11:04:10;101123.88;;;51.80;4.44
70302;BME280;57706;56.326;43.882;2023-05-11T11:06:40;101118.00;;;52.11;4.78
70302;BME280;57706;56.326;43.882;2023-05-11T11:09:09;101113.25;;;51.50;4.27
70302;BME280;57706;56.326;43.882;2023-05-11T11:11:47;101107.03;;;49.92;4.50
70302;BME280;57706;56.326;43.882;2023-05-11T11:14:17;101108.16;;;52.02;3.94
70302;BME280;57706;56.326;43.882;2023-05-11T11:17:26;101114.72;;;50.71;4.29
70302;BME280;57706;56.326;43.882;2023-05-11T11:19:53;101097.50;;;53.39;3.76
70302;BME280;57706;56.326;43.882;2023-05-11T11:25:01;101100.50;;;43.78;7.81
70302;BME280;57706;56.326;43.882;2023-05-11T11:30:19;101101.72;;;43.53;7.57
70302;BME280;57706;56.326;43.882;2023-05-11T11:32:47;101100.44;;;40.62;9.25
70302;BME280;57706;56.326;43.882;2023-05-11T11:38:10;101102.13;;;35.63;11.92
70302;BME280;57706;56.326;43.882;2023-05-11T11:40:50;101093.91;;;33.19;13.77
70302;BME280;57706;56.326;43.882;2023-05-11T11:43:21;101093.25;;;31.69;14.74
70302;BME280;57706;56.326;43.882;2023-05-11T11:46:00;101097.00;;;30.39;15.81
70302;BME280;57706;56.326;43.882;2023-05-11T11:48:33;101095.69;;;29.13;17.06
70302;BME280;57706;56.326;43.882;2023-05-11T11:51:05;101108.09;;;27.99;17.46
70302;BME280;57706;56.326;43.882;2023-05-11T11:56:01;101103.16;;;26.32;19.40
70302;BME280;57706;56.326;43.882;2023-05-11T12:01:13;101100.22;;;25.55;20.19
70302;BME280;57706;56.326;43.882;2023-05-11T12:03:40;101092.41;;;25.53;19.81
70302;BME280;57706;56.326;43.882;2023-05-11T12:06:08;101090.09;;;25.79;20.26
70302;BME280;57706;56.326;43.882;2023-05-11T12:08:35;101095.19;;;25.81;20.07
70302;BME280;57706;56.326;43.882;2023-05-11T12:11:04;101095.00;;;26.27;19.72
70302;BME280;57706;56.326;43.882;2023-05-11T12:13:31;101100.69;;;26.80;19.28
70302;BME280;57706;56.326;43.882;2023-05-11T12:18:41;101089.03;;;28.21;18.12
70302;BME280;57706;56.326;43.882;2023-05-11T12:21:26;101087.53;;;29.45;17.66
70302;BME280;57706;56.326;43.882;2023-05-11T12:24:00;101086.63;;;30.92;16.81
70302;BME280;57706;56.326;43.882;2023-05-11T12:26:28;101085.19;;;33.50;15.35
70302;BME280;57706;56.326;43.882;2023-05-11T12:29:13;101078.19;;;34.51;13.74
70302;BME280;57706;56.326;43.882;2023-05-11T12:31:41;101074.59;;;38.85;10.53
70302;BME280;57706;56.326;43.882;2023-05-11T12:34:18;101078.88;;;41.12;8.57
70302;BME280;57706;56.326;43.882;2023-05-11T12:36:46;101073.03;;;41.82;7.96
70302;BME280;57706;56.326;43.882;2023-05-11T12:39:23;101078.16;;;43.63;7.29
70302;BME280;57706;56.326;43.882;2023-05-11T12:41:51;101079.59;;;44.94;6.97
70302;BME280;57706;56.326;43.882;2023-05-11T12:44:18;101073.97;;;46.31;5.92
70302;BME280;57706;56.326;43.882;2023-05-11T12:46:45;101071.97;;;46.28;5.75
70302;BME280;57706;56.326;43.882;2023-05-11T12:49:15;101066.84;;;46.23;5.55
70302;BME280;57706;56.326;43.882;2023-05-11T12:52:17;101064.50;;;46.72;5.24
70302;BME280;57706;56.326;43.882;2023-05-11T12:54:38;101062.88;;;46.31;5.92
70302;BME280;57706;56.326;43.882;2023-05-11T12:57:06;101061.31;;;46.92;5.44
70302;BME280;57706;56.326;43.882;2023-05-11T12:59:38;101060.03;;;46.17;5.91
70302;BME280;57706;56.326;43.882;2023-05-11T13:02:21;101046.22;;;46.31;5.68
70302;BME280;57706;56.326;43.882;2023-05-11T13:04:47;101060.25;;;45.64;6.41
70302;BME280;57706;56.326;43.882;2023-05-11T13:07:23;101063.59;;;46.10;5.72
70302;BME280;57706;56.326;43.882;2023-05-11T13:09:59;101052.50;;;46.10;5.72
70302;BME280;57706;56.326;43.882;2023-05-11T13:12:26;101054.03;;;45.97;5.75
70302;BME280;57706;56.326;43.882;2023-05-11T13:15:10;101057.31;;;46.53;5.38
70302;BME280;57706;56.326;43.882;2023-05-11T13:17:41;101045.00;;;46.25;6.05
70302;BME280;57706;56.326;43.882;2023-05-11T13:22:45;101048.31;;;45.53;6.07
70302;BME280;57706;56.326;43.882;2023-05-11T13:25:12;101044.22;;;44.31;6.92
70302;BME280;57706;56.326;43.882;2023-05-11T13:27:38;101057.81;;;45.52;6.27
70302;BME280;57706;56.326;43.882;2023-05-11T13:30:04;101051.09;;;45.57;6.50
70302;BME280;57706;56.326;43.882;2023-05-11T13:32:31;101050.03;;;43.03;7.04
70302;BME280;57706;56.326;43.882;2023-05-11T13:35:00;101043.00;;;42.00;7.74